sensor_id;sensor_type;location;lat;lon;timestamp;temperature;humidity
61591;DHT22;57639;52.410;-1.966;2022-12-28T00:02:11;14.80;53.50
61591;DHT22;57639;52.410;-1.966;2022-12-28T00:05:18;14.70;53.50
61591;DHT22;57639;52.410;-1.966;2022-12-28T00:08:24;14.70;53.50
61591;DHT22;57639;52.410;-1.966;2022-12-28T00:11:32;14.70;53.60
61591;DHT22;57639;52.410;-1.966;2022-12-28T00:14:38;14.70;53.50
61591;DHT22;57639;52.410;-1.966;2022-12-28T00:17:44;14.60;53.50
61591;DHT22;57639;52.410;-1.966;2022-12-28T00:20:57;14.60;53.40
61591;DHT22;57639;52.410;-1.966;2022-12-28T00:24:04;14.60;53.40
61591;DHT22;57639;52.410;-1.966;2022-12-28T00:27:13;14.60;53.30
61591;DHT22;57639;52.410;-1.966;2022-12-28T00:30:19;14.60;53.20
61591;DHT22;57639;52.410;-1.966;2022-12-28T00:33:25;14.60;53.10
61591;DHT22;57639;52.410;-1.966;2022-12-28T00:36:31;14.60;53.10
61591;DHT22;57639;52.410;-1.966;2022-12-28T00:39:37;14.60;53.00
61591;DHT22;57639;52.410;-1.966;2022-12-28T00:42:46;14.60;53.10
61591;DHT22;57639;52.410;-1.966;2022-12-28T00:45:52;14.60;53.10
61591;DHT22;57639;52.410;-1.966;2022-12-28T00:48:58;14.60;53.10
61591;DHT22;57639;52.410;-1.966;2022-12-28T00:52:04;14.50;53.10
61591;DHT22;57639;52.410;-1.966;2022-12-28T00:55:11;14.50;53.00
61591;DHT22;57639;52.410;-1.966;2022-12-28T00:58:19;14.50;53.00
61591;DHT22;57639;52.410;-1.966;2022-12-28T01:01:26;14.50;53.00
61591;DHT22;57639;52.410;-1.966;2022-12-28T01:04:32;14.50;53.00
61591;DHT22;57639;52.410;-1.966;2022-12-28T01:07:38;14.40;53.00
61591;DHT22;57639;52.410;-1.966;2022-12-28T01:10:44;14.40;53.00
61591;DHT22;57639;52.410;-1.966;2022-12-28T01:13:55;14.50;53.00
61591;DHT22;57639;52.410;-1.966;2022-12-28T01:17:01;14.40;53.00
61591;DHT22;57639;52.410;-1.966;2022-12-28T01:20:08;14.40;53.00
61591;DHT22;57639;52.410;-1.966;2022-12-28T01:23:14;14.40;52.90
61591;DHT22;57639;52.410;-1.966;2022-12-28T01:26:21;14.40;52.90
61591;DHT22;57639;52.410;-1.966;2022-12-28T01:29:29;14.40;53.00
61591;DHT22;57639;52.410;-1.966;2022-12-28T01:32:35;14.40;53.00
61591;DHT22;57639;52.410;-1.966;2022-12-28T01:35:41;14.40;53.00
61591;DHT22;57639;52.410;-1.966;2022-12-28T01:38:51;14.30;53.00
61591;DHT22;57639;52.410;-1.966;2022-12-28T01:41:58;14.40;53.00
61591;DHT22;57639;52.410;-1.966;2022-12-28T01:45:17;14.40;52.90
61591;DHT22;57639;52.410;-1.966;2022-12-28T01:48:24;14.40;52.90
61591;DHT22;57639;52.410;-1.966;2022-12-28T01:51:33;14.30;52.90
61591;DHT22;57639;52.410;-1.966;2022-12-28T01:54:45;14.30;52.90
61591;DHT22;57639;52.410;-1.966;2022-12-28T01:57:56;14.30;52.90
61591;DHT22;57639;52.410;-1.966;2022-12-28T02:01:06;14.30;52.90
61591;DHT22;57639;52.410;-1.966;2022-12-28T02:04:12;14.30;52.80
61591;DHT22;57639;52.410;-1.966;2022-12-28T02:07:23;14.30;52.80
61591;DHT22;57639;52.410;-1.966;2022-12-28T02:10:32;14.30;52.80
61591;DHT22;57639;52.410;-1.966;2022-12-28T02:13:42;14.30;52.80
61591;DHT22;57639;52.410;-1.966;2022-12-28T02:16:51;14.20;52.80
61591;DHT22;57639;52.410;-1.966;2022-12-28T02:19:58;14.20;52.90
61591;DHT22;57639;52.410;-1.966;2022-12-28T02:23:26;14.30;52.90
61591;DHT22;57639;52.410;-1.966;2022-12-28T02:26:46;14.20;52.90
61591;DHT22;57639;52.410;-1.966;2022-12-28T02:30:06;14.20;52.90
61591;DHT22;57639;52.410;-1.966;2022-12-28T02:33:17;14.30;52.90
61591;DHT22;57639;52.410;-1.966;2022-12-28T02:36:28;14.20;52.80
61591;DHT22;57639;52.410;-1.966;2022-12-28T02:39:40;14.20;52.80
61591;DHT22;57639;52.410;-1.966;2022-12-28T02:42:48;14.20;52.70
61591;DHT22;57639;52.410;-1.966;2022-12-28T02:46:07;14.10;52.70
61591;DHT22;57639;52.410;-1.966;2022-12-28T02:49:29;14.10;52.80
61591;DHT22;57639;52.410;-1.966;2022-12-28T02:53:13;14.10;52.80
61591;DHT22;57639;52.410;-1.966;2022-12-28T02:56:30;14.10;52.80
61591;DHT22;57639;52.410;-1.966;2022-12-28T02:59:50;14.10;52.90
61591;DHT22;57639;52.410;-1.966;2022-12-28T03:03:09;14.10;52.80
61591;DHT22;57639;52.410;-1.966;2022-12-28T03:06:27;14.10;52.90
61591;DHT22;57639;52.410;-1.966;2022-12-28T03:09:57;14.10;52.90
61591;DHT22;57639;52.410;-1.966;2022-12-28T03:13:10;14.10;52.90
61591;DHT22;57639;52.410;-1.966;2022-12-28T03:16:38;14.00;53.00
61591;DHT22;57639;52.410;-1.966;2022-12-28T03:20:05;14.00;53.00
61591;DHT22;57639;52.410;-1.966;2022-12-28T03:23:30;14.00;53.00
61591;DHT22;57639;52.410;-1.966;2022-12-28T03:26:57;14.00;53.00
61591;DHT22;57639;52.410;-1.966;2022-12-28T03:30:21;14.00;53.00
61591;DHT22;57639;52.410;-1.966;2022-12-28T03:33:45;14.00;53.00
61591;DHT22;57639;52.410;-1.966;2022-12-28T03:37:00;14.00;53.00
61591;DHT22;57639;52.410;-1.966;2022-12-28T03:40:14;14.00;53.00
61591;DHT22;57639;52.410;-1.966;2022-12-28T03:43:30;14.00;53.00
61591;DHT22;57639;52.410;-1.966;2022-12-28T03:46:48;14.00;53.00
61591;DHT22;57639;52.410;-1.966;2022-12-28T03:49:57;14.00;53.00
61591;DHT22;57639;52.410;-1.966;2022-12-28T03:53:06;13.90;53.00
61591;DHT22;57639;52.410;-1.966;2022-12-28T03:56:14;13.90;53.10
61591;DHT22;57639;52.410;-1.966;2022-12-28T03:59:20;13.90;53.10
61591;DHT22;57639;52.410;-1.966;2022-12-28T04:02:26;13.90;53.10
61591;DHT22;57639;52.410;-1.966;2022-12-28T04:05:32;13.90;53.00
61591;DHT22;57639;52.410;-1.966;2022-12-28T04:08:41;13.90;53.00
61591;DHT22;57639;52.410;-1.966;2022-12-28T04:11:47;13.90;53.00
61591;DHT22;57639;52.410;-1.966;2022-12-28T04:14:53;13.90;53.00
61591;DHT22;57639;52.410;-1.966;2022-12-28T04:17:59;13.90;52.90
61591;DHT22;57639;52.410;-1.966;2022-12-28T04:21:05;13.90;53.00
61591;DHT22;57639;52.410;-1.966;2022-12-28T04:24:14;13.90;52.90
61591;DHT22;57639;52.410;-1.966;2022-12-28T04:27:20;13.90;52.90
61591;DHT22;57639;52.410;-1.966;2022-12-28T04:30:27;13.90;52.90
61591;DHT22;57639;52.410;-1.966;2022-12-28T04:33:33;13.90;52.80
61591;DHT22;57639;52.410;-1.966;2022-12-28T04:36:40;13.90;52.80
61591;DHT22;57639;52.410;-1.966;2022-12-28T04:39:49;14.00;52.80
61591;DHT22;57639;52.410;-1.966;2022-12-28T04:42:55;13.90;52.90
61591;DHT22;57639;52.410;-1.966;2022-12-28T04:46:02;13.90;52.80
61591;DHT22;57639;52.410;-1.966;2022-12-28T04:49:09;14.00;52.80
61591;DHT22;57639;52.410;-1.966;2022-12-28T04:52:15;13.90;52.70
61591;DHT22;57639;52.410;-1.966;2022-12-28T04:55:24;13.90;52.80
61591;DHT22;57639;52.410;-1.966;2022-12-28T04:58:30;13.90;52.80
61591;DHT22;57639;52.410;-1.966;2022-12-28T05:01:36;13.90;52.70
61591;DHT22;57639;52.410;-1.966;2022-12-28T05:04:42;13.90;52.70
61591;DHT22;57639;52.410;-1.966;2022-12-28T05:07:48;13.90;52.80
61591;DHT22;57639;52.410;-1.966;2022-12-28T05:10:58;13.80;52.80
61591;DHT22;57639;52.410;-1.966;2022-12-28T05:14:04;13.80;52.90
61591;DHT22;57639;52.410;-1.966;2022-12-28T05:17:10;13.80;52.90
61591;DHT22;57639;52.410;-1.966;2022-12-28T05:20:16;13.80;52.90
61591;DHT22;57639;52.410;-1.966;2022-12-28T05:23:22;13.80;53.00
61591;DHT22;57639;52.410;-1.966;2022-12-28T05:26:31;13.80;52.90
61591;DHT22;57639;52.410;-1.966;2022-12-28T05:29:37;13.80;53.00
61591;DHT22;57639;52.410;-1.966;2022-12-28T05:32:43;13.70;53.00
61591;DHT22;57639;52.410;-1.966;2022-12-28T05:35:49;13.70;53.00
61591;DHT22;57639;52.410;-1.966;2022-12-28T05:38:55;13.70;53.00
61591;DHT22;57639;52.410;-1.966;2022-12-28T05:42:05;13.70;53.10
61591;DHT22;57639;52.410;-1.966;2022-12-28T05:45:11;13.70;53.10
61591;DHT22;57639;52.410;-1.966;2022-12-28T05:48:16;13.70;53.10
61591;DHT22;57639;52.410;-1.966;2022-12-28T05:51:25;13.70;53.10
61591;DHT22;57639;52.410;-1.966;2022-12-28T05:54:31;13.70;53.10
61591;DHT22;57639;52.410;-1.966;2022-12-28T05:57:40;13.70;53.10
61591;DHT22;57639;52.410;-1.966;2022-12-28T06:00:46;13.60;53.10
61591;DHT22;57639;52.410;-1.966;2022-12-28T06:03:54;13.70;53.10
61591;DHT22;57639;52.410;-1.966;2022-12-28T06:07:01;13.70;53.10
61591;DHT22;57639;52.410;-1.966;2022-12-28T06:10:07;13.60;53.10
61591;DHT22;57639;52.410;-1.966;2022-12-28T06:13:16;13.60;53.10
61591;DHT22;57639;52.410;-1.966;2022-12-28T06:16:24;13.60;53.10
61591;DHT22;57639;52.410;-1.966;2022-12-28T06:19:30;13.70;53.10
61591;DHT22;57639;52.410;-1.966;2022-12-28T06:22:36;13.60;53.20
61591;DHT22;57639;52.410;-1.966;2022-12-28T06:25:42;13.70;53.20
61591;DHT22;57639;52.410;-1.966;2022-12-28T06:28:51;13.70;53.10
61591;DHT22;57639;52.410;-1.966;2022-12-28T06:31:57;13.60;53.20
61591;DHT22;57639;52.410;-1.966;2022-12-28T06:35:03;13.70;53.20
61591;DHT22;57639;52.410;-1.966;2022-12-28T06:38:10;13.70;53.20
61591;DHT22;57639;52.410;-1.966;2022-12-28T06:41:17;13.60;53.20
61591;DHT22;57639;52.410;-1.966;2022-12-28T06:44:27;13.70;53.10
61591;DHT22;57639;52.410;-1.966;2022-12-28T06:47:33;13.70;53.20
61591;DHT22;57639;52.410;-1.966;2022-12-28T06:50:39;13.60;53.10
61591;DHT22;57639;52.410;-1.966;2022-12-28T06:53:46;13.70;53.10
61591;DHT22;57639;52.410;-1.966;2022-12-28T06:56:52;13.60;53.10
61591;DHT22;57639;52.410;-1.966;2022-12-28T07:00:02;13.60;53.10
61591;DHT22;57639;52.410;-1.966;2022-12-28T07:03:08;13.60;53.10
61591;DHT22;57639;52.410;-1.966;2022-12-28T07:06:16;13.60;53.00
61591;DHT22;57639;52.410;-1.966;2022-12-28T07:09:22;13.60;53.00
61591;DHT22;57639;52.410;-1.966;2022-12-28T07:12:28;13.60;53.10
61591;DHT22;57639;52.410;-1.966;2022-12-28T07:15:37;13.70;53.10
61591;DHT22;57639;52.410;-1.966;2022-12-28T07:18:43;13.80;53.20
61591;DHT22;57639;52.410;-1.966;2022-12-28T07:21:49;14.00;53.00
61591;DHT22;57639;52.410;-1.966;2022-12-28T07:24:55;14.10;52.70
61591;DHT22;57639;52.410;-1.966;2022-12-28T07:28:01;14.30;52.40
61591;DHT22;57639;52.410;-1.966;2022-12-28T07:31:12;14.60;52.00
61591;DHT22;57639;52.410;-1.966;2022-12-28T07:34:19;14.80;51.70
61591;DHT22;57639;52.410;-1.966;2022-12-28T07:37:25;15.00;51.40
61591;DHT22;57639;52.410;-1.966;2022-12-28T07:40:31;15.20;51.00
61591;DHT22;57639;52.410;-1.966;2022-12-28T07:43:37;15.50;50.70
61591;DHT22;57639;52.410;-1.966;2022-12-28T07:46:46;15.60;50.30
61591;DHT22;57639;52.410;-1.966;2022-12-28T07:49:52;15.80;50.10
61591;DHT22;57639;52.410;-1.966;2022-12-28T07:52:59;16.00;49.80
61591;DHT22;57639;52.410;-1.966;2022-12-28T07:56:06;16.20;49.50
61591;DHT22;57639;52.410;-1.966;2022-12-28T07:59:12;16.30;49.20
61591;DHT22;57639;52.410;-1.966;2022-12-28T08:02:21;16.40;49.00
61591;DHT22;57639;52.410;-1.966;2022-12-28T08:05:27;16.60;48.80
61591;DHT22;57639;52.410;-1.966;2022-12-28T08:08:34;16.60;48.60
61591;DHT22;57639;52.410;-1.966;2022-12-28T08:11:42;16.70;48.50
61591;DHT22;57639;52.410;-1.966;2022-12-28T08:14:48;16.80;48.50
61591;DHT22;57639;52.410;-1.966;2022-12-28T08:17:57;16.70;48.50
61591;DHT22;57639;52.410;-1.966;2022-12-28T08:21:07;16.70;48.60
61591;DHT22;57639;52.410;-1.966;2022-12-28T08:24:19;16.70;48.80
61591;DHT22;57639;52.410;-1.966;2022-12-28T08:27:25;16.60;48.90
61591;DHT22;57639;52.410;-1.966;2022-12-28T08:30:31;16.60;49.10
61591;DHT22;57639;52.410;-1.966;2022-12-28T08:33:40;16.50;49.30
61591;DHT22;57639;52.410;-1.966;2022-12-28T08:36:47;16.40;49.40
61591;DHT22;57639;52.410;-1.966;2022-12-28T08:39:53;16.30;49.60
61591;DHT22;57639;52.410;-1.966;2022-12-28T08:43:01;16.30;49.70
61591;DHT22;57639;52.410;-1.966;2022-12-28T08:46:11;16.20;49.80
61591;DHT22;57639;52.410;-1.966;2022-12-28T08:49:20;16.20;49.90
61591;DHT22;57639;52.410;-1.966;2022-12-28T08:52:26;16.10;50.00
61591;DHT22;57639;52.410;-1.966;2022-12-28T08:55:32;16.00;50.40
61591;DHT22;57639;52.410;-1.966;2022-12-28T08:58:39;16.00;50.40
61591;DHT22;57639;52.410;-1.966;2022-12-28T09:01:46;16.00;50.60
61591;DHT22;57639;52.410;-1.966;2022-12-28T09:04:55;15.90;50.60
61591;DHT22;57639;52.410;-1.966;2022-12-28T09:08:01;15.80;50.80
61591;DHT22;57639;52.410;-1.966;2022-12-28T09:11:13;15.80;50.90
61591;DHT22;57639;52.410;-1.966;2022-12-28T09:14:20;15.70;50.90
61591;DHT22;57639;52.410;-1.966;2022-12-28T09:17:26;15.70;51.00
61591;DHT22;57639;52.410;-1.966;2022-12-28T09:20:37;15.70;51.10
61591;DHT22;57639;52.410;-1.966;2022-12-28T09:23:44;15.60;51.30
61591;DHT22;57639;52.410;-1.966;2022-12-28T09:26:51;15.50;51.50
61591;DHT22;57639;52.410;-1.966;2022-12-28T09:29:57;15.50;51.60
61591;DHT22;57639;52.410;-1.966;2022-12-28T09:33:03;15.50;51.70
61591;DHT22;57639;52.410;-1.966;2022-12-28T09:36:29;15.40;51.80
61591;DHT22;57639;52.410;-1.966;2022-12-28T09:39:35;15.40;51.80
61591;DHT22;57639;52.410;-1.966;2022-12-28T09:42:45;15.30;52.00
61591;DHT22;57639;52.410;-1.966;2022-12-28T09:45:51;15.30;52.20
61591;DHT22;57639;52.410;-1.966;2022-12-28T09:49:01;15.20;52.30
61591;DHT22;57639;52.410;-1.966;2022-12-28T09:52:25;15.20;52.40
61591;DHT22;57639;52.410;-1.966;2022-12-28T09:55:33;15.10;52.50
61591;DHT22;57639;52.410;-1.966;2022-12-28T09:58:40;15.10;52.70
61591;DHT22;57639;52.410;-1.966;2022-12-28T10:01:52;15.10;52.70
61591;DHT22;57639;52.410;-1.966;2022-12-28T10:04:59;15.00;52.70
61591;DHT22;57639;52.410;-1.966;2022-12-28T10:08:13;15.00;52.70
61591;DHT22;57639;52.410;-1.966;2022-12-28T10:11:23;15.00;52.90
61591;DHT22;57639;52.410;-1.966;2022-12-28T10:14:32;15.00;52.80
61591;DHT22;57639;52.410;-1.966;2022-12-28T10:17:37;15.00;53.00
61591;DHT22;57639;52.410;-1.966;2022-12-28T10:20:44;14.90;53.00
61591;DHT22;57639;52.410;-1.966;2022-12-28T10:23:53;14.90;53.10
61591;DHT22;57639;52.410;-1.966;2022-12-28T10:27:03;14.90;53.10
61591;DHT22;57639;52.410;-1.966;2022-12-28T10:30:15;14.90;52.80
61591;DHT22;57639;52.410;-1.966;2022-12-28T10:33:21;14.90;53.00
61591;DHT22;57639;52.410;-1.966;2022-12-28T10:36:32;14.90;53.00
61591;DHT22;57639;52.410;-1.966;2022-12-28T10:39:48;14.80;53.00
61591;DHT22;57639;52.410;-1.966;2022-12-28T10:42:58;14.80;53.20
61591;DHT22;57639;52.410;-1.966;2022-12-28T10:46:06;14.80;53.20
61591;DHT22;57639;52.410;-1.966;2022-12-28T10:49:20;14.80;52.90
61591;DHT22;57639;52.410;-1.966;2022-12-28T10:52:26;14.80;53.30
61591;DHT22;57639;52.410;-1.966;2022-12-28T10:55:35;14.80;53.50
61591;DHT22;57639;52.410;-1.966;2022-12-28T10:58:43;14.70;53.40
61591;DHT22;57639;52.410;-1.966;2022-12-28T11:01:49;14.70;53.60
61591;DHT22;57639;52.410;-1.966;2022-12-28T11:04:58;14.70;53.80
61591;DHT22;57639;52.410;-1.966;2022-12-28T11:08:05;14.70;53.80
61591;DHT22;57639;52.410;-1.966;2022-12-28T11:11:21;14.70;53.90
61591;DHT22;57639;52.410;-1.966;2022-12-28T11:14:30;14.70;54.00
61591;DHT22;57639;52.410;-1.966;2022-12-28T11:17:37;14.60;54.10
61591;DHT22;57639;52.410;-1.966;2022-12-28T11:20:45;14.60;53.80
61591;DHT22;57639;52.410;-1.966;2022-12-28T11:23:51;14.60;54.10
61591;DHT22;57639;52.410;-1.966;2022-12-28T11:27:02;14.60;54.10
61591;DHT22;57639;52.410;-1.966;2022-12-28T11:30:13;14.60;54.10
61591;DHT22;57639;52.410;-1.966;2022-12-28T11:33:41;14.60;54.00
61591;DHT22;57639;52.410;-1.966;2022-12-28T11:36:48;14.60;53.90
61591;DHT22;57639;52.410;-1.966;2022-12-28T11:39:59;14.60;53.60
61591;DHT22;57639;52.410;-1.966;2022-12-28T11:46:57;14.60;53.40
61591;DHT22;57639;52.410;-1.966;2022-12-28T11:54:01;14.50;53.50
61591;DHT22;57639;52.410;-1.966;2022-12-28T11:57:07;14.50;53.60
61591;DHT22;57639;52.410;-1.966;2022-12-28T12:00:45;14.50;53.50
61591;DHT22;57639;52.410;-1.966;2022-12-28T12:07:46;14.40;53.60
61591;DHT22;57639;52.410;-1.966;2022-12-28T12:11:20;14.40;54.10
61591;DHT22;57639;52.410;-1.966;2022-12-28T12:14:30;14.40;54.10
61591;DHT22;57639;52.410;-1.966;2022-12-28T12:17:43;14.50;54.00
61591;DHT22;57639;52.410;-1.966;2022-12-28T12:20:56;14.60;53.80
61591;DHT22;57639;52.410;-1.966;2022-12-28T12:24:15;14.80;53.50
61591;DHT22;57639;52.410;-1.966;2022-12-28T12:27:32;15.10;53.20
61591;DHT22;57639;52.410;-1.966;2022-12-28T12:30:41;15.30;52.80
61591;DHT22;57639;52.410;-1.966;2022-12-28T12:33:50;15.50;52.30
61591;DHT22;57639;52.410;-1.966;2022-12-28T12:44:39;16.20;51.10
61591;DHT22;57639;52.410;-1.966;2022-12-28T12:48:16;16.40;50.70
61591;DHT22;57639;52.410;-1.966;2022-12-28T12:51:32;16.60;50.50
61591;DHT22;57639;52.410;-1.966;2022-12-28T12:54:51;16.80;50.30
61591;DHT22;57639;52.410;-1.966;2022-12-28T12:58:08;16.90;50.00
61591;DHT22;57639;52.410;-1.966;2022-12-28T13:01:42;17.10;49.80
61591;DHT22;57639;52.410;-1.966;2022-12-28T13:04:50;17.20;49.50
61591;DHT22;57639;52.410;-1.966;2022-12-28T13:07:58;17.30;49.30
61591;DHT22;57639;52.410;-1.966;2022-12-28T13:11:07;17.40;49.30
61591;DHT22;57639;52.410;-1.966;2022-12-28T13:14:16;17.40;49.40
61591;DHT22;57639;52.410;-1.966;2022-12-28T13:17:27;17.40;49.40
61591;DHT22;57639;52.410;-1.966;2022-12-28T13:20:33;17.40;49.50
61591;DHT22;57639;52.410;-1.966;2022-12-28T13:23:42;17.30;49.70
61591;DHT22;57639;52.410;-1.966;2022-12-28T13:26:49;17.30;49.90
61591;DHT22;57639;52.410;-1.966;2022-12-28T13:29:56;17.20;50.00
61591;DHT22;57639;52.410;-1.966;2022-12-28T13:33:18;17.10;50.20
61591;DHT22;57639;52.410;-1.966;2022-12-28T13:36:24;17.00;50.50
61591;DHT22;57639;52.410;-1.966;2022-12-28T13:39:31;17.00;50.70
61591;DHT22;57639;52.410;-1.966;2022-12-28T13:42:47;16.90;50.80
61591;DHT22;57639;52.410;-1.966;2022-12-28T13:45:59;16.80;50.90
61591;DHT22;57639;52.410;-1.966;2022-12-28T13:49:12;16.80;51.00
61591;DHT22;57639;52.410;-1.966;2022-12-28T13:52:21;16.60;51.30
61591;DHT22;57639;52.410;-1.966;2022-12-28T13:55:33;16.60;51.40
61591;DHT22;57639;52.410;-1.966;2022-12-28T13:58:43;16.60;51.60
61591;DHT22;57639;52.410;-1.966;2022-12-28T14:01:51;16.50;51.70
61591;DHT22;57639;52.410;-1.966;2022-12-28T14:05:01;16.40;51.80
61591;DHT22;57639;52.410;-1.966;2022-12-28T14:08:07;16.40;52.00
61591;DHT22;57639;52.410;-1.966;2022-12-28T14:11:13;16.30;51.80
61591;DHT22;57639;52.410;-1.966;2022-12-28T14:14:21;16.20;52.30
61591;DHT22;57639;52.410;-1.966;2022-12-28T14:17:27;16.20;52.50
61591;DHT22;57639;52.410;-1.966;2022-12-28T14:20:50;16.10;52.60
61591;DHT22;57639;52.410;-1.966;2022-12-28T14:24:10;16.10;52.80
61591;DHT22;57639;52.410;-1.966;2022-12-28T14:27:20;16.00;52.80
61591;DHT22;57639;52.410;-1.966;2022-12-28T14:30:28;16.00;53.10
61591;DHT22;57639;52.410;-1.966;2022-12-28T14:33:37;15.90;53.00
61591;DHT22;57639;52.410;-1.966;2022-12-28T14:36:54;15.80;53.20
61591;DHT22;57639;52.410;-1.966;2022-12-28T14:40:05;15.80;53.00
61591;DHT22;57639;52.410;-1.966;2022-12-28T14:43:16;15.70;52.80
61591;DHT22;57639;52.410;-1.966;2022-12-28T14:46:32;15.70;52.90
61591;DHT22;57639;52.410;-1.966;2022-12-28T14:49:38;15.70;53.00
61591;DHT22;57639;52.410;-1.966;2022-12-28T14:52:49;15.60;53.50
61591;DHT22;57639;52.410;-1.966;2022-12-28T14:56:03;15.60;53.60
61591;DHT22;57639;52.410;-1.966;2022-12-28T14:59:16;15.60;53.70
61591;DHT22;57639;52.410;-1.966;2022-12-28T15:02:38;15.60;53.50
61591;DHT22;57639;52.410;-1.966;2022-12-28T15:05:48;15.60;53.60
61591;DHT22;57639;52.410;-1.966;2022-12-28T15:08:58;15.60;53.90
61591;DHT22;57639;52.410;-1.966;2022-12-28T15:12:12;15.60;53.70
61591;DHT22;57639;52.410;-1.966;2022-12-28T15:15:19;15.50;53.70
61591;DHT22;57639;52.410;-1.966;2022-12-28T15:18:25;15.50;53.70
61591;DHT22;57639;52.410;-1.966;2022-12-28T15:21:32;15.40;54.00
61591;DHT22;57639;52.410;-1.966;2022-12-28T15:24:41;15.40;53.70
61591;DHT22;57639;52.410;-1.966;2022-12-28T15:27:49;15.40;54.10
61591;DHT22;57639;52.410;-1.966;2022-12-28T15:30:55;15.40;54.20
61591;DHT22;57639;52.410;-1.966;2022-12-28T15:34:01;15.40;54.00
61591;DHT22;57639;52.410;-1.966;2022-12-28T15:37:07;15.30;53.60
61591;DHT22;57639;52.410;-1.966;2022-12-28T15:40:16;15.30;53.60
61591;DHT22;57639;52.410;-1.966;2022-12-28T15:43:22;15.30;54.10
61591;DHT22;57639;52.410;-1.966;2022-12-28T15:46:28;15.30;54.10
61591;DHT22;57639;52.410;-1.966;2022-12-28T15:49:34;15.30;54.00
61591;DHT22;57639;52.410;-1.966;2022-12-28T15:52:40;15.20;54.20
61591;DHT22;57639;52.410;-1.966;2022-12-28T15:55:57;15.20;54.40
61591;DHT22;57639;52.410;-1.966;2022-12-28T15:59:06;15.20;54.40
61591;DHT22;57639;52.410;-1.966;2022-12-28T16:02:12;15.20;54.30
61591;DHT22;57639;52.410;-1.966;2022-12-28T16:05:19;15.20;54.10
61591;DHT22;57639;52.410;-1.966;2022-12-28T16:08:25;15.20;54.40
61591;DHT22;57639;52.410;-1.966;2022-12-28T16:11:34;15.10;54.20
61591;DHT22;57639;52.410;-1.966;2022-12-28T16:14:40;15.10;54.30
61591;DHT22;57639;52.410;-1.966;2022-12-28T16:17:46;15.10;53.90
61591;DHT22;57639;52.410;-1.966;2022-12-28T16:20:58;15.10;54.40
61591;DHT22;57639;52.410;-1.966;2022-12-28T16:24:04;15.10;54.10
61591;DHT22;57639;52.410;-1.966;2022-12-28T16:27:13;15.10;54.00
61591;DHT22;57639;52.410;-1.966;2022-12-28T16:30:19;15.10;53.70
61591;DHT22;57639;52.410;-1.966;2022-12-28T16:33:26;15.10;53.60
61591;DHT22;57639;52.410;-1.966;2022-12-28T16:36:32;15.10;53.70
61591;DHT22;57639;52.410;-1.966;2022-12-28T16:39:38;15.10;53.70
61591;DHT22;57639;52.410;-1.966;2022-12-28T16:42:47;15.10;53.70
61591;DHT22;57639;52.410;-1.966;2022-12-28T16:45:53;15.10;53.50
61591;DHT22;57639;52.410;-1.966;2022-12-28T16:49:00;15.10;53.70
61591;DHT22;57639;52.410;-1.966;2022-12-28T16:52:06;15.00;53.60
61591;DHT22;57639;52.410;-1.966;2022-12-28T16:55:12;15.10;53.60
61591;DHT22;57639;52.410;-1.966;2022-12-28T16:58:24;15.00;53.70
61591;DHT22;57639;52.410;-1.966;2022-12-28T17:01:34;15.00;53.70
61591;DHT22;57639;52.410;-1.966;2022-12-28T17:04:40;15.00;53.70
61591;DHT22;57639;52.410;-1.966;2022-12-28T17:07:46;14.90;53.70
61591;DHT22;57639;52.410;-1.966;2022-12-28T17:10:55;15.00;53.80
61591;DHT22;57639;52.410;-1.966;2022-12-28T17:14:06;14.90;53.80
61591;DHT22;57639;52.410;-1.966;2022-12-28T17:17:14;14.90;53.80
61591;DHT22;57639;52.410;-1.966;2022-12-28T17:20:20;14.90;53.80
61591;DHT22;57639;52.410;-1.966;2022-12-28T17:23:27;14.90;53.90
61591;DHT22;57639;52.410;-1.966;2022-12-28T17:26:33;14.90;53.90
61591;DHT22;57639;52.410;-1.966;2022-12-28T17:29:42;14.90;53.90
61591;DHT22;57639;52.410;-1.966;2022-12-28T17:32:48;14.80;53.90
61591;DHT22;57639;52.410;-1.966;2022-12-28T17:35:54;14.90;54.00
61591;DHT22;57639;52.410;-1.966;2022-12-28T17:39:00;14.80;54.20
61591;DHT22;57639;52.410;-1.966;2022-12-28T17:42:06;14.80;54.10
61591;DHT22;57639;52.410;-1.966;2022-12-28T17:45:16;14.80;53.90
61591;DHT22;57639;52.410;-1.966;2022-12-28T17:48:22;14.80;53.90
61591;DHT22;57639;52.410;-1.966;2022-12-28T17:51:32;14.90;53.90
61591;DHT22;57639;52.410;-1.966;2022-12-28T17:54:38;14.80;53.90
61591;DHT22;57639;52.410;-1.966;2022-12-28T17:57:44;14.80;54.00
61591;DHT22;57639;52.410;-1.966;2022-12-28T18:00:55;14.80;54.10
61591;DHT22;57639;52.410;-1.966;2022-12-28T18:04:01;14.90;53.90
61591;DHT22;57639;52.410;-1.966;2022-12-28T18:07:07;14.90;53.90
61591;DHT22;57639;52.410;-1.966;2022-12-28T18:10:13;14.80;53.90
61591;DHT22;57639;52.410;-1.966;2022-12-28T18:13:20;14.80;54.10
61591;DHT22;57639;52.410;-1.966;2022-12-28T18:16:32;14.90;54.00
61591;DHT22;57639;52.410;-1.966;2022-12-28T18:19:38;15.00;53.80
61591;DHT22;57639;52.410;-1.966;2022-12-28T18:22:44;15.10;53.60
61591;DHT22;57639;52.410;-1.966;2022-12-28T18:25:50;15.30;53.40
61591;DHT22;57639;52.410;-1.966;2022-12-28T18:28:56;15.50;53.00
61591;DHT22;57639;52.410;-1.966;2022-12-28T18:32:05;15.70;52.60
61591;DHT22;57639;52.410;-1.966;2022-12-28T18:35:11;16.00;52.20
61591;DHT22;57639;52.410;-1.966;2022-12-28T18:38:17;16.20;51.80
61591;DHT22;57639;52.410;-1.966;2022-12-28T18:41:24;16.50;51.50
61591;DHT22;57639;52.410;-1.966;2022-12-28T18:44:30;16.60;51.10
61591;DHT22;57639;52.410;-1.966;2022-12-28T18:47:38;16.80;50.80
61591;DHT22;57639;52.410;-1.966;2022-12-28T18:50:51;16.90;50.50
61591;DHT22;57639;52.410;-1.966;2022-12-28T18:53:57;17.10;50.20
61591;DHT22;57639;52.410;-1.966;2022-12-28T18:57:03;17.20;50.10
61591;DHT22;57639;52.410;-1.966;2022-12-28T19:00:10;17.40;49.90
61591;DHT22;57639;52.410;-1.966;2022-12-28T19:03:19;17.50;49.50
61591;DHT22;57639;52.410;-1.966;2022-12-28T19:06:25;17.60;49.40
61591;DHT22;57639;52.410;-1.966;2022-12-28T19:09:32;17.60;49.20
61591;DHT22;57639;52.410;-1.966;2022-12-28T19:12:38;17.60;49.30
61591;DHT22;57639;52.410;-1.966;2022-12-28T19:15:44;17.60;49.30
61591;DHT22;57639;52.410;-1.966;2022-12-28T19:18:55;17.60;49.40
61591;DHT22;57639;52.410;-1.966;2022-12-28T19:22:01;17.60;49.60
61591;DHT22;57639;52.410;-1.966;2022-12-28T19:25:07;17.50;49.70
61591;DHT22;57639;52.410;-1.966;2022-12-28T19:28:11;17.50;49.60
61591;DHT22;57639;52.410;-1.966;2022-12-28T19:31:17;17.40;49.70
61591;DHT22;57639;52.410;-1.966;2022-12-28T19:34:26;17.40;49.70
61591;DHT22;57639;52.410;-1.966;2022-12-28T19:37:32;17.30;49.80
61591;DHT22;57639;52.410;-1.966;2022-12-28T19:40:39;17.20;50.00
61591;DHT22;57639;52.410;-1.966;2022-12-28T19:43:45;17.10;50.10
61591;DHT22;57639;52.410;-1.966;2022-12-28T19:46:51;17.10;50.10
61591;DHT22;57639;52.410;-1.966;2022-12-28T19:50:01;17.20;50.10
61591;DHT22;57639;52.410;-1.966;2022-12-28T19:53:07;17.10;50.10
61591;DHT22;57639;52.410;-1.966;2022-12-28T19:56:15;17.10;50.30